Time;durP1;ratioP1;P1;durP2;ratioP2;P2;SDS_P1;SDS_P2;PMS_P1;PMS_P2;Temp;Humidity;BMP_temperature;BMP_pressure;BME280_temperature;BME280_humidity;BME280_pressure;Samples;Min_cycle;Max_cycle;Signal;HPM_P1;HPM_P2
2022/04/28 00:00:42;;;;;;;7.17;6.47;;;;;;;;;;5010026;28;20856;-80
2022/04/28 00:06:28;;;;;;;6.50;6.00;;;;;;;;;;5000024;28;20516;-82
2022/04/28 00:08:57;;;;;;;10.20;6.90;;;;;;;;;;5013283;28;20427;-81
2022/04/28 00:11:24;;;;;;;6.83;6.33;;;;;;;;;;5020123;28;20983;-81
2022/04/28 00:13:58;;;;;;;7.33;6.80;;;;;;;;;;4991005;28;20440;-81
2022/04/28 00:16:26;;;;;;;7.70;6.90;;;;;;;;;;5011729;28;20478;-80
2022/04/28 00:18:53;;;;;;;7.23;6.73;;;;;;;;;;4990667;28;21036;-80
2022/04/28 00:21:22;;;;;;;7.73;7.23;;;;;;;;;;5018323;28;20447;-80
2022/04/28 00:23:51;;;;;;;8.57;7.77;;;;;;;;;;5008717;28;20441;-80
2022/04/28 00:26:17;;;;;;;7.27;6.67;;;;;;;;;;5015793;28;20440;-81
2022/04/28 00:28:43;;;;;;;8.03;7.30;;;;;;;;;;5013358;28;20818;-81
2022/04/28 00:31:09;;;;;;;7.60;7.10;;;;;;;;;;5032292;28;20501;-81
2022/04/28 00:33:35;;;;;;;9.27;7.33;;;;;;;;;;5022712;28;20490;-81
2022/04/28 00:36:01;;;;;;;14.17;7.63;;;;;;;;;;5006522;28;20471;-79
2022/04/28 00:38:27;;;;;;;8.53;7.77;;;;;;;;;;5008571;28;20446;-79
2022/04/28 00:40:54;;;;;;;10.10;7.30;;;;;;;;;;4992620;28;20993;-81
2022/04/28 00:43:28;;;;;;;8.93;8.10;;;;;;;;;;4990100;28;20443;-80
2022/04/28 00:45:54;;;;;;;8.00;7.30;;;;;;;;;;5011242;28;20431;-81
2022/04/28 00:51:05;;;;;;;8.73;7.93;;;;;;;;;;5012386;28;20442;-81
2022/04/28 00:53:33;;;;;;;8.97;8.07;;;;;;;;;;5008182;28;20494;-80
2022/04/28 00:55:59;;;;;;;9.97;9.00;;;;;;;;;;4994021;28;20477;-80
2022/04/28 00:58:25;;;;;;;11.60;8.33;;;;;;;;;;4989954;28;20450;-80
2022/04/28 01:00:55;;;;;;;9.23;8.33;;;;;;;;;;4988172;28;20462;-80
2022/04/28 01:03:22;;;;;;;11.47;8.47;;;;;;;;;;4990469;28;21009;-80
2022/04/28 01:05:49;;;;;;;9.53;8.63;;;;;;;;;;4991702;28;20803;-80
2022/04/28 01:08:15;;;;;;;10.30;9.30;;;;;;;;;;4990213;28;20972;-80
2022/04/28 01:10:41;;;;;;;10.57;8.70;;;;;;;;;;5016821;28;20517;-80
2022/04/28 01:13:07;;;;;;;9.07;8.27;;;;;;;;;;5007755;28;21051;-80
2022/04/28 01:15:43;;;;;;;8.87;8.10;;;;;;;;;;5012847;28;20439;-80
2022/04/28 01:18:09;;;;;;;9.73;8.80;;;;;;;;;;5007489;28;20435;-80
2022/04/28 01:20:35;;;;;;;15.23;9.00;;;;;;;;;;5005901;28;20499;-80
2022/04/28 01:23:04;;;;;;;10.23;9.23;;;;;;;;;;4989715;28;20444;-80
2022/04/28 01:25:30;;;;;;;10.23;7.90;;;;;;;;;;4992974;28;20435;-80
2022/04/28 01:27:57;;;;;;;9.37;8.23;;;;;;;;;;4989582;28;20844;-80
2022/04/28 01:30:23;;;;;;;9.10;7.53;;;;;;;;;;4988294;28;20505;-79
2022/04/28 01:32:49;;;;;;;12.97;8.73;;;;;;;;;;4989467;28;20797;-80
2022/04/28 01:35:15;;;;;;;12.97;9.40;;;;;;;;;;5005450;28;20474;-80
2022/04/28 01:37:41;;;;;;;11.05;8.95;;;;;;;;;;5022492;28;20474;-80
2022/04/28 01:40:11;;;;;;;11.10;8.80;;;;;;;;;;5019620;28;20200;-80
2022/04/28 01:42:52;;;;;;;11.63;9.30;;;;;;;;;;5007264;28;20431;-80
2022/04/28 01:45:18;;;;;;;10.73;9.60;;;;;;;;;;5000785;28;20454;-80
2022/04/28 01:47:44;;;;;;;9.83;8.90;;;;;;;;;;5006627;28;20195;-80
2022/04/28 01:50:11;;;;;;;9.60;8.77;;;;;;;;;;5004883;28;20440;-79
2022/04/28 01:55:22;;;;;;;14.80;9.50;;;;;;;;;;4999446;28;20510;-80
2022/04/28 01:57:49;;;;;;;10.77;9.80;;;;;;;;;;5006436;28;21067;-80
2022/04/28 02:00:15;;;;;;;9.63;8.80;;;;;;;;;;5004341;28;20475;-80
2022/04/28 02:02:42;;;;;;;11.13;9.10;;;;;;;;;;4988424;28;20929;-79
2022/04/28 02:05:08;;;;;;;15.10;10.60;;;;;;;;;;5009285;28;20545;-79
2022/04/28 02:07:35;;;;;;;13.67;10.60;;;;;;;;;;5013872;28;20423;-80
2022/04/28 02:10:02;;;;;;;12.00;8.97;;;;;;;;;;4995131;28;20813;-80
2022/04/28 02:12:28;;;;;;;11.13;10.00;;;;;;;;;;5019336;28;20422;-81
2022/04/28 02:14:54;;;;;;;13.57;10.10;;;;;;;;;;4988514;28;20481;-80
2022/04/28 02:17:21;;;;;;;12.87;9.50;;;;;;;;;;5010394;28;20478;-80
2022/04/28 02:19:47;;;;;;;11.77;10.57;;;;;;;;;;5010317;28;20440;-80
2022/04/28 02:22:13;;;;;;;14.83;10.50;;;;;;;;;;5019407;28;20415;-80
2022/04/28 02:24:39;;;;;;;18.73;11.00;;;;;;;;;;5017642;28;20434;-80
2022/04/28 02:27:05;;;;;;;11.33;9.80;;;;;;;;;;5008942;28;20627;-80
2022/04/28 02:29:32;;;;;;;15.43;10.50;;;;;;;;;;4994873;28;20458;-80
2022/04/28 02:31:57;;;;;;;13.90;10.67;;;;;;;;;;4991233;28;20779;-80
2022/04/28 02:34:24;;;;;;;14.83;10.90;;;;;;;;;;4990876;28;20435;-80
2022/04/28 02:36:50;;;;;;;12.30;10.33;;;;;;;;;;5019081;28;20517;-80
2022/04/28 02:39:19;;;;;;;16.27;11.07;;;;;;;;;;5015979;28;20434;-79
2022/04/28 02:41:46;;;;;;;11.37;10.27;;;;;;;;;;5001359;28;20435;-80
2022/04/28 02:44:12;;;;;;;11.33;10.20;;;;;;;;;;4999918;28;20426;-80
2022/04/28 02:46:39;;;;;;;18.20;11.13;;;;;;;;;;5018607;28;20435;-79
2022/04/28 02:49:05;;;;;;;14.65;11.30;;;;;;;;;;5017656;28;20416;-80
2022/04/28 02:51:31;;;;;;;10.90;9.80;;;;;;;;;;5009296;28;20185;-80
2022/04/28 02:53:57;;;;;;;12.37;11.20;;;;;;;;;;5018763;28;20476;-80
2022/04/28 02:56:25;;;;;;;21.70;11.50;;;;;;;;;;4991226;28;20508;-80
2022/04/28 02:58:51;;;;;;;11.83;9.43;;;;;;;;;;5013950;28;20433;-80
2022/04/28 03:01:17;;;;;;;16.33;10.90;;;;;;;;;;4995682;28;21026;-81
2022/04/28 03:03:43;;;;;;;15.50;11.73;;;;;;;;;;5021379;28;20461;-81
2022/04/28 03:11:39;;;;;;;12.37;10.77;;;;;;;;;;5010856;28;20414;-81
2022/04/28 03:14:06;;;;;;;11.80;10.53;;;;;;;;;;5009994;28;20837;-80
2022/04/28 03:16:32;;;;;;;13.25;11.55;;;;;;;;;;5007622;28;20445;-81
2022/04/28 03:18:58;;;;;;;14.60;10.98;;;;;;;;;;5010466;28;20181;-81
2022/04/28 03:21:24;;;;;;;13.13;11.13;;;;;;;;;;5010219;28;20613;-82
2022/04/28 03:23:51;;;;;;;13.93;10.83;;;;;;;;;;4993011;28;20222;-82
2022/04/28 03:26:21;;;;;;;16.85;11.40;;;;;;;;;;5005682;28;20461;-82
2022/04/28 03:28:47;;;;;;;15.90;10.50;;;;;;;;;;4993035;28;20196;-82
2022/04/28 03:31:13;;;;;;;11.97;10.83;;;;;;;;;;5008376;28;20434;-81
2022/04/28 03:33:39;;;;;;;19.00;11.23;;;;;;;;;;5010531;28;20785;-81
2022/04/28 03:36:50;;;;;;;12.97;11.37;;;;;;;;;;4991282;28;20463;-82
2022/04/28 03:38:54;;;;;;;18.30;11.40;;;;;;;;;;4989650;28;20418;-81
2022/04/28 03:41:20;;;;;;;13.35;10.65;;;;;;;;;;5008464;28;20442;-82
2022/04/28 03:43:54;;;;;;;17.30;12.73;;;;;;;;;;5009979;28;20251;-82
2022/04/28 03:47:02;;;;;;;16.00;11.93;;;;;;;;;;4996303;28;20913;-81
2022/04/28 03:50:31;;;;;;;;;;;;;;;;;;;;;
2022/04/28 03:53:14;;;;;;;21.33;11.98;;;;;;;;;;5004694;28;20497;-81
2022/04/28 03:56:18;;;;;;;17.77;11.10;;;;;;;;;;5009747;28;20642;-81
2022/04/28 03:59:16;;;;;;;14.37;11.50;;;;;;;;;;4998171;28;20238;-81
2022/04/28 04:05:02;;;;;;;17.13;12.23;;;;;;;;;;4997137;28;20454;-81
2022/04/28 04:07:53;;;;;;;17.15;12.07;;;;;;;;;;5020863;28;20177;-81
2022/04/28 04:11:01;;;;;;;18.37;12.37;;;;;;;;;;5016824;28;20663;-81
2022/04/28 04:13:28;;;;;;;17.92;12.07;;;;;;;;;;4919574;29;20506;-80
2022/04/28 04:15:57;;;;;;;16.95;12.18;;;;;;;;;;4988695;28;20751;-81
2022/04/28 04:18:44;;;;;;;;;;;;;;;;;;;;;
2022/04/28 04:21:37;;;;;;;13.13;11.73;;;;;;;;;;5025695;28;20437;-81
2022/04/28 04:24:35;;;;;;;17.30;12.75;;;;;;;;;;5016152;28;20450;-80
2022/04/28 04:33:30;;;;;;;;;;;;;;;;;;;;;
2022/04/28 04:35:58;;;;;;;17.85;14.00;;;;;;;;;;5019101;28;20478;-80
2022/04/28 04:38:24;;;;;;;17.48;12.75;;;;;;;;;;5021594;28;20287;-80
2022/04/28 04:41:02;;;;;;;19.02;13.98;;;;;;;;;;4990745;28;20192;-81
2022/04/28 04:46:31;;;;;;;16.23;11.60;;;;;;;;;;5026584;28;20538;-80
2022/04/28 04:48:57;;;;;;;15.35;12.90;;;;;;;;;;4992252;28;20191;-81
2022/04/28 04:51:32;;;;;;;17.80;13.27;;;;;;;;;;5025303;28;20274;-81
2022/04/28 04:54:27;;;;;;;16.37;13.27;;;;;;;;;;5001771;28;20445;-82
2022/04/28 04:57:07;;;;;;;;;;;;;;;;;;;;;
2022/04/28 04:59:33;;;;;;;16.10;13.33;;;;;;;;;;5015445;28;20579;-81
2022/04/28 05:02:05;;;;;;;14.35;12.18;;;;;;;;;;4995333;28;20994;-80
2022/04/28 05:04:36;;;;;;;19.85;13.35;;;;;;;;;;5004701;28;20262;-81
2022/04/28 05:07:02;;;;;;;14.77;12.75;;;;;;;;;;4988617;28;20188;-80
2022/04/28 05:09:31;;;;;;;16.30;12.90;;;;;;;;;;4984556;28;20189;-82
2022/04/28 05:12:21;;;;;;;21.00;12.70;;;;;;;;;;4990408;28;20509;-81
2022/04/28 05:14:53;;;;;;;16.43;12.60;;;;;;;;;;4990984;28;20420;-81
2022/04/28 05:17:19;;;;;;;18.03;13.03;;;;;;;;;;4658010;28;10000588;-81
2022/04/28 05:19:56;;;;;;;17.73;13.80;;;;;;;;;;4998846;28;20232;-80
2022/04/28 05:22:25;;;;;;;17.50;12.60;;;;;;;;;;5009768;28;20431;-81
2022/04/28 05:24:51;;;;;;;13.37;11.07;;;;;;;;;;5004031;28;20439;-80
2022/04/28 05:27:18;;;;;;;18.50;11.60;;;;;;;;;;4987542;28;20518;-81
2022/04/28 05:29:44;;;;;;;14.77;11.83;;;;;;;;;;5004941;28;20722;-81
2022/04/28 05:32:11;;;;;;;13.50;11.30;;;;;;;;;;4991534;28;20474;-81
2022/04/28 05:34:46;;;;;;;14.07;11.73;;;;;;;;;;5007737;28;20772;-81
2022/04/28 05:37:20;;;;;;;16.47;11.30;;;;;;;;;;4982969;28;20479;-80
2022/04/28 05:39:46;;;;;;;18.50;11.70;;;;;;;;;;4988233;28;20638;-80
2022/04/28 05:42:12;;;;;;;12.27;11.13;;;;;;;;;;4998201;28;20537;-81
2022/04/28 05:47:26;;;;;;;14.93;11.60;;;;;;;;;;5002601;28;20506;-77
2022/04/28 05:49:53;;;;;;;19.50;12.10;;;;;;;;;;5008920;28;20439;-80
2022/04/28 05:52:19;;;;;;;18.93;13.00;;;;;;;;;;5000918;28;20428;-80
2022/04/28 05:54:45;;;;;;;20.47;12.30;;;;;;;;;;5009298;28;20536;-81
2022/04/28 05:57:14;;;;;;;14.60;12.30;;;;;;;;;;4997413;28;20490;-80
2022/04/28 05:59:40;;;;;;;17.67;13.17;;;;;;;;;;4994103;28;20438;-80
2022/04/28 06:02:06;;;;;;;17.00;13.70;;;;;;;;;;5003986;28;20427;-80
2022/04/28 06:04:35;;;;;;;20.40;12.40;;;;;;;;;;4992245;28;20448;-81
2022/04/28 06:07:01;;;;;;;16.13;13.07;;;;;;;;;;4965510;28;20483;-79
2022/04/28 06:09:28;;;;;;;14.03;12.30;;;;;;;;;;5014451;28;20785;-79
2022/04/28 06:12:00;;;;;;;16.93;12.70;;;;;;;;;;4994572;28;20526;-80
2022/04/28 06:14:29;;;;;;;18.30;12.20;;;;;;;;;;4991277;28;20569;-81
2022/04/28 06:16:56;;;;;;;16.97;12.90;;;;;;;;;;4982240;28;20505;-82
2022/04/28 06:19:23;;;;;;;14.30;12.83;;;;;;;;;;4999353;28;20447;-81
2022/04/28 06:21:49;;;;;;;14.93;12.60;;;;;;;;;;5002683;28;20443;-80
2022/04/28 06:24:15;;;;;;;14.60;12.40;;;;;;;;;;5014594;28;20478;-80
2022/04/28 06:26:41;;;;;;;14.50;13.10;;;;;;;;;;5004082;28;20820;-81
2022/04/28 06:29:07;;;;;;;16.73;12.67;;;;;;;;;;5000629;28;20543;-81
2022/04/28 06:31:34;;;;;;;13.80;12.50;;;;;;;;;;5007330;28;20515;-81
2022/04/28 06:34:00;;;;;;;15.90;13.40;;;;;;;;;;5006179;28;20430;-81
2022/04/28 06:36:26;;;;;;;17.00;13.20;;;;;;;;;;4989836;28;20491;-82
2022/04/28 06:38:52;;;;;;;19.53;13.60;;;;;;;;;;5012254;28;20442;-81
2022/04/28 06:41:18;;;;;;;14.47;13.07;;;;;;;;;;5012444;28;20455;-79
2022/04/28 06:43:44;;;;;;;16.80;14.70;;;;;;;;;;5012268;28;20443;-80
2022/04/28 06:46:13;;;;;;;16.67;13.77;;;;;;;;;;4991867;28;20451;-81
2022/04/28 06:48:39;;;;;;;15.33;14.03;;;;;;;;;;4991229;28;20459;-80
2022/04/28 06:51:05;;;;;;;16.07;12.93;;;;;;;;;;4988005;28;20858;-80
2022/04/28 06:53:31;;;;;;;15.00;13.47;;;;;;;;;;4998121;28;20451;-80
2022/04/28 06:55:57;;;;;;;16.70;15.10;;;;;;;;;;4992198;28;20451;-81
2022/04/28 06:58:23;;;;;;;16.53;14.70;;;;;;;;;;4987718;28;20432;-81
2022/04/28 07:00:49;;;;;;;16.63;14.30;;;;;;;;;;4661681;28;10000022;-79
2022/04/28 07:03:16;;;;;;;16.23;14.53;;;;;;;;;;5011981;28;20246;-80
2022/04/28 07:05:42;;;;;;;16.17;14.43;;;;;;;;;;4988423;28;20718;-80
2022/04/28 07:08:08;;;;;;;16.93;14.83;;;;;;;;;;4994585;28;20426;-77
2022/04/28 07:10:37;;;;;;;19.97;14.53;;;;;;;;;;5011390;28;20482;-79
2022/04/28 07:13:03;;;;;;;18.60;14.70;;;;;;;;;;5005318;28;20462;-77
2022/04/28 07:15:29;;;;;;;17.57;14.33;;;;;;;;;;5007304;28;20435;-80
2022/04/28 07:17:55;;;;;;;21.53;14.60;;;;;;;;;;5002338;28;20821;-80
2022/04/28 07:20:29;;;;;;;15.47;13.97;;;;;;;;;;5005333;28;20435;-80
2022/04/28 07:22:55;;;;;;;15.37;13.70;;;;;;;;;;5007879;28;20489;-82
2022/04/28 07:25:24;;;;;;;17.83;15.13;;;;;;;;;;5004748;28;20427;-80
2022/04/28 07:27:54;;;;;;;19.30;13.80;;;;;;;;;;4984956;28;20489;-81
2022/04/28 07:30:20;;;;;;;16.60;15.00;;;;;;;;;;5008186;28;20443;-79
2022/04/28 07:32:46;;;;;;;16.43;14.70;;;;;;;;;;4988745;28;20423;-79
2022/04/28 07:35:12;;;;;;;15.17;13.80;;;;;;;;;;5003664;28;20447;-80
2022/04/28 07:37:38;;;;;;;16.17;14.50;;;;;;;;;;5017415;28;20478;-80
2022/04/28 07:40:05;;;;;;;16.53;14.47;;;;;;;;;;5010470;28;20920;-81
2022/04/28 07:42:33;;;;;;;17.70;15.93;;;;;;;;;;4999878;28;20442;-81
2022/04/28 07:44:59;;;;;;;15.53;13.63;;;;;;;;;;5012603;28;20415;-80
2022/04/28 07:47:28;;;;;;;16.10;14.60;;;;;;;;;;4990156;28;20450;-81
2022/04/28 07:49:57;;;;;;;18.47;15.10;;;;;;;;;;4996632;28;20434;-80
2022/04/28 07:52:24;;;;;;;16.93;15.27;;;;;;;;;;4988008;28;20964;-84
2022/04/28 07:54:50;;;;;;;15.77;14.47;;;;;;;;;;4988447;28;20455;-82
2022/04/28 07:57:17;;;;;;;16.37;14.60;;;;;;;;;;5016228;28;20475;-81
2022/04/28 07:59:43;;;;;;;16.30;14.60;;;;;;;;;;4995329;28;20903;-81
2022/04/28 08:02:13;;;;;;;14.87;13.57;;;;;;;;;;5013061;28;20524;-82
2022/04/28 08:04:39;;;;;;;13.90;12.57;;;;;;;;;;5012299;28;20419;-80
2022/04/28 08:07:05;;;;;;;13.97;12.77;;;;;;;;;;5007195;28;20547;-81
2022/04/28 08:09:32;;;;;;;14.50;13.17;;;;;;;;;;5006082;28;20423;-80
2022/04/28 08:11:59;;;;;;;15.07;13.40;;;;;;;;;;4999955;28;20471;-81
2022/04/28 08:14:25;;;;;;;15.33;13.87;;;;;;;;;;5002160;28;20410;-81
2022/04/28 08:16:52;;;;;;;16.33;14.97;;;;;;;;;;5004164;28;20471;-80
2022/04/28 08:19:19;;;;;;;22.17;20.00;;;;;;;;;;4996669;28;20452;-79
2022/04/28 08:21:45;;;;;;;16.17;14.57;;;;;;;;;;5007322;28;20502;-77
2022/04/28 08:24:13;;;;;;;14.43;13.00;;;;;;;;;;5009278;28;20477;-81
2022/04/28 08:26:46;;;;;;;20.63;14.83;;;;;;;;;;5007671;28;20951;-78
2022/04/28 08:29:12;;;;;;;15.87;14.40;;;;;;;;;;5006164;28;20807;-79
2022/04/28 08:31:43;;;;;;;14.57;13.27;;;;;;;;;;5025627;28;20931;-80
2022/04/28 08:34:09;;;;;;;15.30;14.00;;;;;;;;;;5005535;28;20427;-80
2022/04/28 08:36:35;;;;;;;15.27;13.70;;;;;;;;;;5024668;28;20775;-80
2022/04/28 08:39:01;;;;;;;15.00;13.37;;;;;;;;;;5023490;28;20782;-81
2022/04/28 08:41:32;;;;;;;14.87;13.47;;;;;;;;;;5025217;28;20742;-80
2022/04/28 08:43:59;;;;;;;14.37;13.23;;;;;;;;;;5001734;28;20443;-80
2022/04/28 08:52:02;;;;;;;15.57;14.37;;;;;;;;;;5035174;28;20931;-82
2022/04/28 08:54:29;;;;;;;15.97;14.27;;;;;;;;;;5026567;28;20451;-84
2022/04/28 08:56:57;;;;;;;15.93;14.33;;;;;;;;;;5015368;28;20495;-84
2022/04/28 08:59:41;;;;;;;15.60;14.17;;;;;;;;;;5023951;28;20427;-85
2022/04/28 09:02:22;;;;;;;13.67;12.37;;;;;;;;;;5019180;28;20500;-85
2022/04/28 09:04:51;;;;;;;15.87;14.30;;;;;;;;;;5017965;28;20442;-85
2022/04/28 09:07:32;;;;;;;15.77;14.33;;;;;;;;;;5037949;28;20483;-82
2022/04/28 09:09:58;;;;;;;14.80;13.20;;;;;;;;;;5032357;28;20468;-81
2022/04/28 09:12:27;;;;;;;15.73;14.43;;;;;;;;;;4995374;28;20451;-81
2022/04/28 09:15:12;;;;;;;14.73;13.43;;;;;;;;;;4990709;28;20527;-81
2022/04/28 09:17:42;;;;;;;14.13;13.00;;;;;;;;;;5005484;28;20907;-80
2022/04/28 09:20:15;;;;;;;15.10;13.10;;;;;;;;;;5017981;28;20435;-82
2022/04/28 09:22:48;;;;;;;13.57;12.33;;;;;;;;;;5004689;28;20432;-80
2022/04/28 09:25:25;;;;;;;14.77;13.47;;;;;;;;;;4975673;28;21245;-82
2022/04/28 09:28:04;;;;;;;14.53;13.20;;;;;;;;;;5012835;28;20435;-82
2022/04/28 09:30:41;;;;;;;13.30;12.30;;;;;;;;;;5006162;28;20780;-81
2022/04/28 09:33:11;;;;;;;14.10;12.90;;;;;;;;;;4998476;28;20431;-81
2022/04/28 09:35:43;;;;;;;15.20;13.80;;;;;;;;;;5005496;28;20443;-81
2022/04/28 09:38:09;;;;;;;16.30;14.87;;;;;;;;;;5007763;28;20519;-81
2022/04/28 09:43:20;;;;;;;14.40;13.23;;;;;;;;;;5007756;28;20455;-81
2022/04/28 09:45:49;;;;;;;13.50;12.30;;;;;;;;;;5005147;28;20936;-81
2022/04/28 09:48:17;;;;;;;15.23;13.70;;;;;;;;;;5006825;28;20416;-83
2022/04/28 09:50:43;;;;;;;13.40;12.27;;;;;;;;;;4987684;28;20530;-82
2022/04/28 09:53:11;;;;;;;14.13;12.93;;;;;;;;;;4989432;28;20403;-81
2022/04/28 09:55:40;;;;;;;13.87;12.43;;;;;;;;;;4999244;28;20457;-81
2022/04/28 09:58:23;;;;;;;13.43;12.20;;;;;;;;;;4986400;28;20472;-82
2022/04/28 10:00:50;;;;;;;14.43;12.90;;;;;;;;;;5007453;28;20983;-81
2022/04/28 10:03:16;;;;;;;14.43;13.23;;;;;;;;;;5001891;28;20797;-81
2022/04/28 10:05:43;;;;;;;13.30;12.30;;;;;;;;;;5006503;28;20463;-83
2022/04/28 10:08:09;;;;;;;12.30;11.23;;;;;;;;;;4991002;28;20420;-81
2022/04/28 10:10:35;;;;;;;13.63;12.43;;;;;;;;;;5006985;28;20439;-82
2022/04/28 10:13:02;;;;;;;13.53;12.30;;;;;;;;;;4992163;28;20419;-83
2022/04/28 10:15:30;;;;;;;12.57;11.50;;;;;;;;;;5010577;28;20432;-83
2022/04/28 10:18:00;;;;;;;13.53;12.40;;;;;;;;;;4998968;28;20483;-84
2022/04/28 10:20:36;;;;;;;13.80;12.80;;;;;;;;;;5009894;28;20423;-82
2022/04/28 10:23:06;;;;;;;15.20;13.93;;;;;;;;;;4991363;28;20870;-84
2022/04/28 10:34:09;;;;;;;13.37;12.27;;;;;;;;;;5010355;28;20523;-82
2022/04/28 10:36:55;;;;;;;13.70;12.60;;;;;;;;;;4997466;28;20507;-82
2022/04/28 10:39:33;;;;;;;14.37;13.27;;;;;;;;;;5006418;28;20712;-82
2022/04/28 10:42:11;;;;;;;15.30;14.00;;;;;;;;;;5004629;28;20526;-83
2022/04/28 10:44:42;;;;;;;13.43;12.33;;;;;;;;;;5004278;28;20540;-82
2022/04/28 10:47:21;;;;;;;13.00;11.93;;;;;;;;;;4990203;28;20684;-82
2022/04/28 10:49:52;;;;;;;13.63;12.63;;;;;;;;;;4993282;28;20592;-81
2022/04/28 10:52:23;;;;;;;13.77;12.47;;;;;;;;;;5007499;28;20913;-79
2022/04/28 10:54:52;;;;;;;12.80;11.80;;;;;;;;;;4990665;28;20531;-83
2022/04/28 10:57:19;;;;;;;14.47;13.37;;;;;;;;;;5012477;28;20462;-82
2022/04/28 10:59:52;;;;;;;14.67;13.57;;;;;;;;;;4989119;28;20450;-84
2022/04/28 11:02:23;;;;;;;13.80;12.40;;;;;;;;;;4986672;28;20490;-83
2022/04/28 11:05:15;;;;;;;13.73;12.60;;;;;;;;;;4994100;28;20865;-82
2022/04/28 11:07:46;;;;;;;14.40;13.27;;;;;;;;;;4984327;28;20442;-79
2022/04/28 11:10:13;;;;;;;14.70;13.50;;;;;;;;;;5004303;28;20453;-83
2022/04/28 11:12:42;;;;;;;13.83;12.70;;;;;;;;;;5016832;28;20408;-82
2022/04/28 11:15:28;;;;;;;13.43;12.53;;;;;;;;;;5011134;28;20470;-82
2022/04/28 11:44:26;;;;;;;13.00;12.10;;;;;;;;;;5071455;23;20661;-93
2022/04/28 13:24:08;;;;;;;12.93;12.00;;;;;;;;;;6058583;23;20456;-93
2022/04/28 13:27:16;;;;;;;12.87;11.87;;;;;;;;;;5002682;28;20432;-92
2022/04/28 13:30:28;;;;;;;12.90;11.73;;;;;;;;;;5005286;28;20428;-90
2022/04/28 13:33:31;;;;;;;14.60;13.23;;;;;;;;;;5012796;28;20431;-92
2022/04/28 13:36:58;;;;;;;13.50;12.60;;;;;;;;;;5015238;28;20474;-93
2022/04/28 16:10:51;;;;;;;11.17;9.80;;;;;;;;;;5192049;23;10001761;-91
2022/04/28 16:13:37;;;;;;;13.23;10.43;;;;;;;;;;4977241;28;20365;-91
2022/04/28 16:16:45;;;;;;;11.27;10.27;;;;;;;;;;4996562;28;20484;-88
2022/04/28 16:19:49;;;;;;;11.23;9.40;;;;;;;;;;4996735;28;20536;-87
2022/04/28 16:22:59;;;;;;;11.10;10.10;;;;;;;;;;5007102;28;20439;-90
2022/04/28 16:26:02;;;;;;;11.97;10.30;;;;;;;;;;4998738;28;20417;-90
2022/04/28 16:29:14;;;;;;;10.90;9.70;;;;;;;;;;4995234;28;20782;-90
2022/04/28 16:32:20;;;;;;;11.03;9.90;;;;;;;;;;4995299;28;20496;-86
2022/04/28 16:35:29;;;;;;;9.80;8.90;;;;;;;;;;4998036;28;20432;-90
2022/04/28 16:38:35;;;;;;;11.43;10.33;;;;;;;;;;5000782;28;20476;-89
2022/04/28 16:41:46;;;;;;;13.90;9.53;;;;;;;;;;4996586;28;21008;-89
2022/04/28 16:45:07;;;;;;;11.23;9.87;;;;;;;;;;4999720;28;20459;-90
2022/04/28 16:47:58;;;;;;;14.90;11.20;;;;;;;;;;4998999;28;20464;-87
2022/04/28 16:53:58;;;;;;;12.63;9.63;;;;;;;;;;4981487;23;20499;-83
2022/04/28 16:56:24;;;;;;;10.73;8.67;;;;;;;;;;4967627;28;20488;-82
2022/04/28 16:58:50;;;;;;;9.53;8.60;;;;;;;;;;4982594;28;20577;-83
2022/04/28 17:01:16;;;;;;;9.80;7.87;;;;;;;;;;4972692;28;20865;-83
2022/04/28 17:06:27;;;;;;;10.00;9.00;;;;;;;;;;4987622;28;20419;-82
2022/04/28 17:08:54;;;;;;;9.70;8.60;;;;;;;;;;4977155;28;20436;-84
2022/04/28 17:11:21;;;;;;;10.03;8.97;;;;;;;;;;4971681;28;20627;-83
2022/04/28 17:13:50;;;;;;;9.23;8.23;;;;;;;;;;4971268;28;20478;-83
2022/04/28 17:16:16;;;;;;;9.73;8.33;;;;;;;;;;4971508;28;20444;-83
2022/04/28 17:18:42;;;;;;;14.13;8.67;;;;;;;;;;4979831;28;20449;-84
2022/04/28 17:21:08;;;;;;;14.47;7.93;;;;;;;;;;4968321;28;20440;-84
2022/04/28 17:23:34;;;;;;;11.20;9.50;;;;;;;;;;4969103;28;20459;-79
2022/04/28 17:26:02;;;;;;;9.13;8.13;;;;;;;;;;4988398;28;20440;-78
2022/04/28 17:28:28;;;;;;;9.83;7.80;;;;;;;;;;4980880;28;20751;-83
2022/04/28 17:30:54;;;;;;;9.10;8.30;;;;;;;;;;4995304;28;20441;-80
2022/04/28 17:33:26;;;;;;;10.23;8.40;;;;;;;;;;4967174;28;20452;-83
2022/04/28 17:39:28;;;;;;;9.73;7.90;;;;;;;;;;4967968;28;20812;-84
2022/04/28 17:41:55;;;;;;;8.47;7.77;;;;;;;;;;4985736;28;20762;-83
2022/04/28 17:44:27;;;;;;;16.13;9.03;;;;;;;;;;5002070;28;20506;-81
2022/04/28 17:46:59;;;;;;;15.57;9.60;;;;;;;;;;4985673;28;20431;-83
2022/04/28 17:49:25;;;;;;;11.83;8.20;;;;;;;;;;4970777;28;20471;-83
2022/04/28 17:51:51;;;;;;;9.13;7.63;;;;;;;;;;4948748;28;20434;-82
2022/04/28 17:54:30;;;;;;;8.87;8.07;;;;;;;;;;4952032;28;20476;-83
2022/04/28 17:59:56;;;;;;;9.37;8.37;;;;;;;;;;4982236;28;20412;-81
2022/04/28 18:02:25;;;;;;;9.40;7.40;;;;;;;;;;4970464;28;20432;-86
2022/04/28 18:04:51;;;;;;;10.53;9.50;;;;;;;;;;4987243;28;20433;-86
2022/04/28 18:07:28;;;;;;;8.47;7.63;;;;;;;;;;5005640;28;20428;-87
2022/04/28 18:10:04;;;;;;;8.53;7.80;;;;;;;;;;5003778;28;20423;-82
2022/04/28 18:12:36;;;;;;;7.80;7.00;;;;;;;;;;4983079;28;20540;-86
2022/04/28 18:15:03;;;;;;;9.20;7.60;;;;;;;;;;4999842;28;20432;-84
2022/04/28 18:17:36;;;;;;;11.93;8.07;;;;;;;;;;4987467;28;20504;-87
2022/04/28 18:20:03;;;;;;;9.47;6.97;;;;;;;;;;5008958;28;20428;-86
2022/04/28 18:22:34;;;;;;;8.93;7.60;;;;;;;;;;4990199;28;20562;-87
2022/04/28 18:25:06;;;;;;;9.23;7.80;;;;;;;;;;5007213;28;20480;-85
2022/04/28 18:27:53;;;;;;;14.77;8.80;;;;;;;;;;4991149;28;20486;-88
2022/04/28 18:30:19;;;;;;;9.70;7.93;;;;;;;;;;4987802;28;20445;-88
2022/04/28 18:32:49;;;;;;;7.80;6.93;;;;;;;;;;4971118;28;20447;-87
2022/04/28 18:44:26;;;;;;;7.67;6.87;;;;;;;;;;4972464;28;20432;-88
2022/04/28 18:46:37;;;;;;;9.30;8.50;;;;;;;;;;5001906;28;20509;-84
2022/04/28 18:49:03;;;;;;;10.13;7.77;;;;;;;;;;4981168;28;20486;-86
2022/04/28 18:51:34;;;;;;;9.43;7.47;;;;;;;;;;4992714;28;20420;-87
2022/04/28 18:54:00;;;;;;;8.17;6.87;;;;;;;;;;4983204;28;20476;-87
2022/04/28 18:56:29;;;;;;;7.60;6.90;;;;;;;;;;5003659;28;20804;-85
2022/04/28 18:58:55;;;;;;;6.93;6.47;;;;;;;;;;4982484;28;20674;-86
2022/04/28 19:01:24;;;;;;;8.50;6.97;;;;;;;;;;4986672;28;20433;-87
2022/04/28 19:03:53;;;;;;;8.00;7.17;;;;;;;;;;4980538;28;20572;-88
2022/04/28 19:06:19;;;;;;;7.10;6.40;;;;;;;;;;4995105;28;20412;-82
2022/04/28 19:08:52;;;;;;;7.37;5.13;;;;;;;;;;4988683;28;20428;-82
2022/04/28 19:11:22;;;;;;;6.63;5.77;;;;;;;;;;4969013;28;20507;-82
2022/04/28 19:13:51;;;;;;;8.33;6.40;;;;;;;;;;4970332;28;20598;-83
2022/04/28 19:16:17;;;;;;;6.10;5.50;;;;;;;;;;4986050;28;20989;-84
2022/04/28 19:18:44;;;;;;;11.97;6.30;;;;;;;;;;4970631;28;20440;-85
2022/04/28 19:21:11;;;;;;;9.27;5.77;;;;;;;;;;4971218;28;20424;-85
2022/04/28 19:23:37;;;;;;;7.37;6.43;;;;;;;;;;4966924;28;20444;-83
2022/04/28 19:26:03;;;;;;;7.03;6.43;;;;;;;;;;4964732;28;20464;-83
2022/04/28 19:28:29;;;;;;;9.80;5.67;;;;;;;;;;4966536;28;20826;-83
2022/04/28 19:30:55;;;;;;;11.70;6.17;;;;;;;;;;4964160;28;20561;-83
2022/04/28 19:33:21;;;;;;;5.57;5.10;;;;;;;;;;4982215;28;20432;-83
2022/04/28 19:35:47;;;;;;;8.83;5.47;;;;;;;;;;4986384;28;20428;-84
2022/04/28 19:38:18;;;;;;;9.70;6.43;;;;;;;;;;4965159;28;20581;-83
2022/04/28 19:40:47;;;;;;;10.50;6.17;;;;;;;;;;4969887;28;21023;-84
2022/04/28 19:43:14;;;;;;;6.70;5.40;;;;;;;;;;4975185;28;20432;-83
2022/04/28 19:45:41;;;;;;;6.53;5.90;;;;;;;;;;4973711;28;20436;-85
2022/04/28 19:48:10;;;;;;;7.37;6.40;;;;;;;;;;4995851;28;20436;-83
2022/04/28 19:50:39;;;;;;;6.97;6.33;;;;;;;;;;4965691;28;21030;-83
2022/04/28 19:53:08;;;;;;;7.97;7.27;;;;;;;;;;4990499;28;20941;-82
2022/04/28 19:55:34;;;;;;;6.07;5.40;;;;;;;;;;4965225;28;20910;-82
2022/04/28 19:58:00;;;;;;;6.80;6.20;;;;;;;;;;4973194;28;21141;-83
2022/04/28 20:00:26;;;;;;;7.60;6.83;;;;;;;;;;4986936;28;20442;-83
2022/04/28 20:02:53;;;;;;;7.10;6.37;;;;;;;;;;4993930;28;20421;-82
2022/04/28 20:05:19;;;;;;;8.27;7.23;;;;;;;;;;4988628;28;20510;-83
2022/04/28 20:07:45;;;;;;;10.60;7.03;;;;;;;;;;4996107;28;20440;-83
2022/04/28 20:10:12;;;;;;;7.70;6.90;;;;;;;;;;4971763;28;20475;-83
2022/04/28 20:12:38;;;;;;;22.67;7.50;;;;;;;;;;4972254;28;20448;-83
2022/04/28 20:15:05;;;;;;;10.00;7.60;;;;;;;;;;4970153;28;20464;-83
2022/04/28 20:17:31;;;;;;;8.63;7.23;;;;;;;;;;4991434;28;20476;-84
2022/04/28 20:19:57;;;;;;;9.73;7.83;;;;;;;;;;4974121;28;20432;-83
2022/04/28 20:22:26;;;;;;;12.10;9.30;;;;;;;;;;4972337;28;20436;-84
2022/04/28 20:24:53;;;;;;;11.70;8.07;;;;;;;;;;4973539;28;20965;-81
2022/04/28 20:27:22;;;;;;;8.67;7.93;;;;;;;;;;4980081;28;20472;-83
2022/04/28 20:29:49;;;;;;;8.50;7.77;;;;;;;;;;4964622;28;20475;-82
2022/04/28 20:32:16;;;;;;;8.67;7.87;;;;;;;;;;4964359;28;20473;-82
2022/04/28 20:34:51;;;;;;;10.57;8.53;;;;;;;;;;4970339;28;20456;-83